sensor_id;sensor_type;location;lat;lon;timestamp;P1;durP1;ratioP1;P2;durP2;ratioP2
12038;SDS011;6080;48.818;9.526;2022-08-19T00:01:20;39.85;;;37.20;;
12038;SDS011;6080;48.818;9.526;2022-08-19T00:03:47;47.58;;;44.63;;
12038;SDS011;6080;48.818;9.526;2022-08-19T00:06:14;52.58;;;49.50;;
12038;SDS011;6080;48.818;9.526;2022-08-19T00:08:40;58.38;;;54.58;;
12038;SDS011;6080;48.818;9.526;2022-08-19T00:11:06;54.40;;;51.25;;
12038;SDS011;6080;48.818;9.526;2022-08-19T00:13:32;68.90;;;64.88;;
12038;SDS011;6080;48.818;9.526;2022-08-19T00:15:59;69.13;;;65.13;;
12038;SDS011;6080;48.818;9.526;2022-08-19T00:18:25;73.25;;;69.25;;
12038;SDS011;6080;48.818;9.526;2022-08-19T00:20:51;67.78;;;63.95;;
12038;SDS011;6080;48.818;9.526;2022-08-19T00:23:17;56.22;;;52.90;;
12038;SDS011;6080;48.818;9.526;2022-08-19T00:25:44;46.03;;;43.15;;
12038;SDS011;6080;48.818;9.526;2022-08-19T00:28:10;59.17;;;55.72;;
12038;SDS011;6080;48.818;9.526;2022-08-19T00:30:36;47.42;;;44.35;;
12038;SDS011;6080;48.818;9.526;2022-08-19T00:33:03;56.83;;;53.03;;
12038;SDS011;6080;48.818;9.526;2022-08-19T00:35:29;79.25;;;74.93;;
12038;SDS011;6080;48.818;9.526;2022-08-19T00:37:55;80.53;;;75.97;;
12038;SDS011;6080;48.818;9.526;2022-08-19T00:40:21;43.15;;;40.20;;
12038;SDS011;6080;48.818;9.526;2022-08-19T00:42:47;43.70;;;41.15;;
12038;SDS011;6080;48.818;9.526;2022-08-19T00:45:15;87.13;;;82.18;;
12038;SDS011;6080;48.818;9.526;2022-08-19T00:47:45;79.28;;;74.80;;
12038;SDS011;6080;48.818;9.526;2022-08-19T00:50:12;90.88;;;85.78;;
12038;SDS011;6080;48.818;9.526;2022-08-19T00:52:43;81.25;;;76.78;;
12038;SDS011;6080;48.818;9.526;2022-08-19T00:55:16;83.88;;;79.00;;
12038;SDS011;6080;48.818;9.526;2022-08-19T00:57:51;75.80;;;71.45;;
12038;SDS011;6080;48.818;9.526;2022-08-19T01:00:21;88.53;;;83.30;;
12038;SDS011;6080;48.818;9.526;2022-08-19T01:02:50;75.95;;;71.70;;
12038;SDS011;6080;48.818;9.526;2022-08-19T01:05:18;49.10;;;46.00;;
12038;SDS011;6080;48.818;9.526;2022-08-19T01:07:48;85.88;;;81.07;;
12038;SDS011;6080;48.818;9.526;2022-08-19T01:10:17;85.57;;;80.75;;
12038;SDS011;6080;48.818;9.526;2022-08-19T01:12:46;85.13;;;80.28;;
12038;SDS011;6080;48.818;9.526;2022-08-19T01:15:14;72.40;;;68.10;;
12038;SDS011;6080;48.818;9.526;2022-08-19T01:17:43;81.65;;;76.97;;
12038;SDS011;6080;48.818;9.526;2022-08-19T01:20:12;63.72;;;59.97;;
12038;SDS011;6080;48.818;9.526;2022-08-19T01:22:47;98.10;;;92.45;;
12038;SDS011;6080;48.818;9.526;2022-08-19T01:25:17;97.07;;;91.80;;
12038;SDS011;6080;48.818;9.526;2022-08-19T01:27:46;90.67;;;85.67;;
12038;SDS011;6080;48.818;9.526;2022-08-19T01:30:18;77.83;;;73.37;;
12038;SDS011;6080;48.818;9.526;2022-08-19T01:32:51;36.70;;;34.10;;
12038;SDS011;6080;48.818;9.526;2022-08-19T01:35:17;35.40;;;33.03;;
12038;SDS011;6080;48.818;9.526;2022-08-19T01:37:47;31.15;;;29.02;;
12038;SDS011;6080;48.818;9.526;2022-08-19T01:40:40;30.88;;;28.48;;
12038;SDS011;6080;48.818;9.526;2022-08-19T01:43:07;28.25;;;25.88;;
12038;SDS011;6080;48.818;9.526;2022-08-19T01:45:33;30.33;;;28.20;;
12038;SDS011;6080;48.818;9.526;2022-08-19T01:48:01;34.22;;;31.70;;
12038;SDS011;6080;48.818;9.526;2022-08-19T01:50:28;31.17;;;29.13;;
12038;SDS011;6080;48.818;9.526;2022-08-19T01:52:55;43.72;;;40.90;;
12038;SDS011;6080;48.818;9.526;2022-08-19T01:55:22;54.03;;;50.55;;
12038;SDS011;6080;48.818;9.526;2022-08-19T01:57:54;51.08;;;47.80;;
12038;SDS011;6080;48.818;9.526;2022-08-19T02:00:23;51.30;;;47.67;;
12038;SDS011;6080;48.818;9.526;2022-08-19T02:02:52;57.50;;;54.08;;
12038;SDS011;6080;48.818;9.526;2022-08-19T02:05:19;49.17;;;46.03;;
12038;SDS011;6080;48.818;9.526;2022-08-19T02:07:46;39.78;;;37.17;;
12038;SDS011;6080;48.818;9.526;2022-08-19T02:10:15;39.17;;;36.40;;
12038;SDS011;6080;48.818;9.526;2022-08-19T02:12:46;28.55;;;26.23;;
12038;SDS011;6080;48.818;9.526;2022-08-19T02:15:12;29.90;;;27.55;;
12038;SDS011;6080;48.818;9.526;2022-08-19T02:17:39;30.60;;;28.45;;
12038;SDS011;6080;48.818;9.526;2022-08-19T02:20:05;27.73;;;25.55;;
12038;SDS011;6080;48.818;9.526;2022-08-19T02:22:32;28.95;;;26.55;;
12038;SDS011;6080;48.818;9.526;2022-08-19T02:24:58;29.88;;;27.00;;
12038;SDS011;6080;48.818;9.526;2022-08-19T02:27:25;32.25;;;29.70;;
12038;SDS011;6080;48.818;9.526;2022-08-19T02:29:52;32.92;;;29.73;;
12038;SDS011;6080;48.818;9.526;2022-08-19T02:32:18;34.88;;;32.05;;
12038;SDS011;6080;48.818;9.526;2022-08-19T02:34:45;31.40;;;28.80;;
12038;SDS011;6080;48.818;9.526;2022-08-19T02:37:12;35.42;;;32.95;;
12038;SDS011;6080;48.818;9.526;2022-08-19T02:39:57;43.38;;;40.35;;
12038;SDS011;6080;48.818;9.526;2022-08-19T02:42:22;60.55;;;56.75;;
12038;SDS011;6080;48.818;9.526;2022-08-19T02:44:48;56.50;;;52.83;;
12038;SDS011;6080;48.818;9.526;2022-08-19T02:47:14;89.40;;;84.40;;
12038;SDS011;6080;48.818;9.526;2022-08-19T02:49:40;93.75;;;88.40;;
12038;SDS011;6080;48.818;9.526;2022-08-19T02:52:06;77.75;;;73.03;;
12038;SDS011;6080;48.818;9.526;2022-08-19T02:54:32;49.78;;;46.47;;
12038;SDS011;6080;48.818;9.526;2022-08-19T02:56:58;35.30;;;32.85;;
12038;SDS011;6080;48.818;9.526;2022-08-19T02:59:24;43.97;;;40.92;;
12038;SDS011;6080;48.818;9.526;2022-08-19T03:01:51;37.57;;;34.77;;
12038;SDS011;6080;48.818;9.526;2022-08-19T03:04:18;33.67;;;30.93;;
12038;SDS011;6080;48.818;9.526;2022-08-19T03:06:45;34.93;;;32.13;;
12038;SDS011;6080;48.818;9.526;2022-08-19T03:09:12;46.27;;;42.93;;
12038;SDS011;6080;48.818;9.526;2022-08-19T03:11:39;297.23;;;280.02;;
12038;SDS011;6080;48.818;9.526;2022-08-19T03:14:07;95.73;;;89.70;;
12038;SDS011;6080;48.818;9.526;2022-08-19T03:16:35;101.33;;;95.17;;
12038;SDS011;6080;48.818;9.526;2022-08-19T03:19:09;36.77;;;34.07;;
12038;SDS011;6080;48.818;9.526;2022-08-19T03:21:35;91.23;;;85.50;;
12038;SDS011;6080;48.818;9.526;2022-08-19T03:24:02;254.00;;;239.70;;
12038;SDS011;6080;48.818;9.526;2022-08-19T03:26:30;312.60;;;295.13;;
12038;SDS011;6080;48.818;9.526;2022-08-19T03:28:56;310.33;;;293.30;;
12038;SDS011;6080;48.818;9.526;2022-08-19T03:31:23;542.20;;;508.73;;
12038;SDS011;6080;48.818;9.526;2022-08-19T03:33:50;484.83;;;455.90;;
12038;SDS011;6080;48.818;9.526;2022-08-19T03:36:21;415.70;;;391.97;;
12038;SDS011;6080;48.818;9.526;2022-08-19T03:38:51;343.93;;;324.60;;
12038;SDS011;6080;48.818;9.526;2022-08-19T03:41:35;358.97;;;338.33;;
12038;SDS011;6080;48.818;9.526;2022-08-19T03:44:02;398.43;;;376.30;;
12038;SDS011;6080;48.818;9.526;2022-08-19T03:46:32;313.90;;;296.17;;
12038;SDS011;6080;48.818;9.526;2022-08-19T03:49:00;456.03;;;429.83;;
12038;SDS011;6080;48.818;9.526;2022-08-19T03:51:31;262.47;;;247.87;;
12038;SDS011;6080;48.818;9.526;2022-08-19T03:54:03;460.70;;;435.07;;
12038;SDS011;6080;48.818;9.526;2022-08-19T03:56:30;437.73;;;412.73;;
12038;SDS011;6080;48.818;9.526;2022-08-19T03:59:00;511.53;;;482.23;;
12038;SDS011;6080;48.818;9.526;2022-08-19T04:01:27;519.40;;;489.33;;
12038;SDS011;6080;48.818;9.526;2022-08-19T04:03:55;504.60;;;475.37;;
12038;SDS011;6080;48.818;9.526;2022-08-19T04:06:23;516.47;;;486.90;;
12038;SDS011;6080;48.818;9.526;2022-08-19T04:08:54;494.53;;;466.40;;
12038;SDS011;6080;48.818;9.526;2022-08-19T04:11:22;500.97;;;472.40;;
12038;SDS011;6080;48.818;9.526;2022-08-19T04:13:50;468.80;;;441.97;;
12038;SDS011;6080;48.818;9.526;2022-08-19T04:16:18;431.77;;;407.17;;
12038;SDS011;6080;48.818;9.526;2022-08-19T04:18:45;383.70;;;362.07;;
12038;SDS011;6080;48.818;9.526;2022-08-19T04:21:16;448.50;;;422.60;;
12038;SDS011;6080;48.818;9.526;2022-08-19T04:23:44;387.42;;;365.52;;
12038;SDS011;6080;48.818;9.526;2022-08-19T04:26:16;413.23;;;389.07;;
12038;SDS011;6080;48.818;9.526;2022-08-19T04:28:45;445.13;;;419.00;;
12038;SDS011;6080;48.818;9.526;2022-08-19T04:31:12;425.33;;;400.87;;
12038;SDS011;6080;48.818;9.526;2022-08-19T04:33:40;300.13;;;283.50;;
12038;SDS011;6080;48.818;9.526;2022-08-19T04:36:06;279.03;;;263.47;;
12038;SDS011;6080;48.818;9.526;2022-08-19T04:38:33;151.53;;;142.37;;
12038;SDS011;6080;48.818;9.526;2022-08-19T04:40:59;122.23;;;115.07;;
12038;SDS011;6080;48.818;9.526;2022-08-19T04:43:46;113.20;;;106.27;;
12038;SDS011;6080;48.818;9.526;2022-08-19T04:46:14;141.47;;;133.13;;
12038;SDS011;6080;48.818;9.526;2022-08-19T04:48:40;151.47;;;142.80;;
12038;SDS011;6080;48.818;9.526;2022-08-19T04:51:09;145.07;;;136.47;;
12038;SDS011;6080;48.818;9.526;2022-08-19T04:53:38;125.67;;;118.37;;
12038;SDS011;6080;48.818;9.526;2022-08-19T04:56:07;72.03;;;67.00;;
12038;SDS011;6080;48.818;9.526;2022-08-19T04:58:35;84.93;;;79.63;;
12038;SDS011;6080;48.818;9.526;2022-08-19T05:01:03;127.43;;;119.73;;
12038;SDS011;6080;48.818;9.526;2022-08-19T05:03:29;117.25;;;110.20;;
12038;SDS011;6080;48.818;9.526;2022-08-19T05:05:58;77.13;;;72.17;;
12038;SDS011;6080;48.818;9.526;2022-08-19T05:08:29;123.87;;;116.43;;
12038;SDS011;6080;48.818;9.526;2022-08-19T05:10:55;69.03;;;64.23;;
12038;SDS011;6080;48.818;9.526;2022-08-19T05:13:22;51.00;;;47.13;;
12038;SDS011;6080;48.818;9.526;2022-08-19T05:15:55;43.73;;;39.83;;
12038;SDS011;6080;48.818;9.526;2022-08-19T05:18:22;29.87;;;27.13;;
12038;SDS011;6080;48.818;9.526;2022-08-19T05:21:10;28.87;;;26.00;;
12038;SDS011;6080;48.818;9.526;2022-08-19T05:23:58;27.53;;;24.63;;
12038;SDS011;6080;48.818;9.526;2022-08-19T05:26:24;27.40;;;24.57;;
12038;SDS011;6080;48.818;9.526;2022-08-19T05:28:53;26.77;;;24.07;;
12038;SDS011;6080;48.818;9.526;2022-08-19T05:31:19;27.63;;;24.77;;
12038;SDS011;6080;48.818;9.526;2022-08-19T05:33:46;30.93;;;27.83;;
12038;SDS011;6080;48.818;9.526;2022-08-19T05:36:12;41.45;;;38.03;;
12038;SDS011;6080;48.818;9.526;2022-08-19T05:38:40;45.50;;;41.37;;
12038;SDS011;6080;48.818;9.526;2022-08-19T05:41:07;40.57;;;36.93;;
12038;SDS011;6080;48.818;9.526;2022-08-19T05:43:37;40.43;;;36.63;;
12038;SDS011;6080;48.818;9.526;2022-08-19T05:46:04;89.73;;;83.73;;
12038;SDS011;6080;48.818;9.526;2022-08-19T05:48:32;67.70;;;62.87;;
12038;SDS011;6080;48.818;9.526;2022-08-19T05:51:02;116.17;;;108.77;;
12038;SDS011;6080;48.818;9.526;2022-08-19T05:53:32;159.10;;;149.93;;
12038;SDS011;6080;48.818;9.526;2022-08-19T05:56:03;211.00;;;199.30;;
12038;SDS011;6080;48.818;9.526;2022-08-19T05:58:33;215.10;;;203.13;;
12038;SDS011;6080;48.818;9.526;2022-08-19T06:01:01;230.07;;;217.03;;
12038;SDS011;6080;48.818;9.526;2022-08-19T06:03:34;230.17;;;216.80;;
12038;SDS011;6080;48.818;9.526;2022-08-19T06:06:03;438.33;;;411.97;;
12038;SDS011;6080;48.818;9.526;2022-08-19T06:08:29;217.77;;;204.00;;
12038;SDS011;6080;48.818;9.526;2022-08-19T06:10:56;155.63;;;145.77;;
12038;SDS011;6080;48.818;9.526;2022-08-19T06:13:22;147.97;;;138.17;;
12038;SDS011;6080;48.818;9.526;2022-08-19T06:15:48;449.53;;;419.73;;
12038;SDS011;6080;48.818;9.526;2022-08-19T06:18:15;369.40;;;344.87;;
12038;SDS011;6080;48.818;9.526;2022-08-19T06:20:41;289.60;;;271.50;;
12038;SDS011;6080;48.818;9.526;2022-08-19T06:23:08;182.10;;;170.27;;
12038;SDS011;6080;48.818;9.526;2022-08-19T06:25:35;295.37;;;277.13;;
12038;SDS011;6080;48.818;9.526;2022-08-19T06:28:01;281.87;;;264.50;;
12038;SDS011;6080;48.818;9.526;2022-08-19T06:30:27;188.53;;;176.53;;
12038;SDS011;6080;48.818;9.526;2022-08-19T06:32:53;79.27;;;73.10;;
12038;SDS011;6080;48.818;9.526;2022-08-19T06:35:19;62.60;;;57.30;;
12038;SDS011;6080;48.818;9.526;2022-08-19T06:37:45;148.17;;;138.00;;
12038;SDS011;6080;48.818;9.526;2022-08-19T06:40:11;85.40;;;78.50;;
12038;SDS011;6080;48.818;9.526;2022-08-19T06:42:38;107.83;;;99.97;;
12038;SDS011;6080;48.818;9.526;2022-08-19T06:45:05;80.40;;;74.13;;
12038;SDS011;6080;48.818;9.526;2022-08-19T06:47:33;52.23;;;47.13;;
12038;SDS011;6080;48.818;9.526;2022-08-19T06:49:59;65.97;;;60.30;;
12038;SDS011;6080;48.818;9.526;2022-08-19T06:52:28;78.73;;;72.80;;
12038;SDS011;6080;48.818;9.526;2022-08-19T06:54:59;64.77;;;59.07;;
12038;SDS011;6080;48.818;9.526;2022-08-19T06:57:25;62.23;;;57.00;;
12038;SDS011;6080;48.818;9.526;2022-08-19T06:59:52;74.83;;;69.10;;
12038;SDS011;6080;48.818;9.526;2022-08-19T07:02:18;77.70;;;71.50;;
12038;SDS011;6080;48.818;9.526;2022-08-19T07:04:45;113.63;;;105.70;;
12038;SDS011;6080;48.818;9.526;2022-08-19T07:07:12;102.33;;;94.80;;
12038;SDS011;6080;48.818;9.526;2022-08-19T07:09:41;53.70;;;48.73;;
12038;SDS011;6080;48.818;9.526;2022-08-19T07:12:09;38.53;;;34.63;;
12038;SDS011;6080;48.818;9.526;2022-08-19T07:14:38;56.33;;;51.30;;
12038;SDS011;6080;48.818;9.526;2022-08-19T07:17:05;117.97;;;109.43;;
12038;SDS011;6080;48.818;9.526;2022-08-19T07:19:36;144.93;;;135.40;;
12038;SDS011;6080;48.818;9.526;2022-08-19T07:22:04;99.70;;;92.03;;
12038;SDS011;6080;48.818;9.526;2022-08-19T07:24:32;147.83;;;137.73;;
12038;SDS011;6080;48.818;9.526;2022-08-19T07:27:00;142.83;;;132.77;;
12038;SDS011;6080;48.818;9.526;2022-08-19T07:29:28;90.53;;;83.73;;
12038;SDS011;6080;48.818;9.526;2022-08-19T07:31:58;160.60;;;150.03;;
12038;SDS011;6080;48.818;9.526;2022-08-19T07:34:26;131.13;;;122.03;;
12038;SDS011;6080;48.818;9.526;2022-08-19T07:36:54;103.33;;;95.57;;
12038;SDS011;6080;48.818;9.526;2022-08-19T07:39:28;101.40;;;94.07;;
12038;SDS011;6080;48.818;9.526;2022-08-19T07:41:56;104.37;;;96.80;;
12038;SDS011;6080;48.818;9.526;2022-08-19T07:44:24;82.40;;;75.90;;
12038;SDS011;6080;48.818;9.526;2022-08-19T07:46:51;48.83;;;43.87;;
12038;SDS011;6080;48.818;9.526;2022-08-19T07:49:21;60.10;;;54.90;;
12038;SDS011;6080;48.818;9.526;2022-08-19T07:51:48;61.97;;;56.73;;
12038;SDS011;6080;48.818;9.526;2022-08-19T07:54:16;43.87;;;39.57;;
12038;SDS011;6080;48.818;9.526;2022-08-19T07:56:43;77.43;;;71.57;;
12038;SDS011;6080;48.818;9.526;2022-08-19T07:59:09;84.17;;;77.83;;
12038;SDS011;6080;48.818;9.526;2022-08-19T08:01:35;39.90;;;34.47;;
12038;SDS011;6080;48.818;9.526;2022-08-19T08:04:02;55.57;;;49.97;;
12038;SDS011;6080;48.818;9.526;2022-08-19T08:06:46;63.43;;;57.57;;
12038;SDS011;6080;48.818;9.526;2022-08-19T08:09:33;40.07;;;31.90;;
12038;SDS011;6080;48.818;9.526;2022-08-19T08:12:03;64.10;;;58.57;;
12038;SDS011;6080;48.818;9.526;2022-08-19T08:14:40;55.27;;;50.37;;
12038;SDS011;6080;48.818;9.526;2022-08-19T08:17:11;36.27;;;31.30;;
12038;SDS011;6080;48.818;9.526;2022-08-19T08:19:38;74.53;;;68.77;;
12038;SDS011;6080;48.818;9.526;2022-08-19T08:22:06;36.40;;;30.63;;
12038;SDS011;6080;48.818;9.526;2022-08-19T08:24:54;80.00;;;74.07;;
12038;SDS011;6080;48.818;9.526;2022-08-19T08:27:20;76.30;;;70.53;;
12038;SDS011;6080;48.818;9.526;2022-08-19T08:29:46;95.63;;;89.17;;
12038;SDS011;6080;48.818;9.526;2022-08-19T08:32:14;97.47;;;90.37;;
12038;SDS011;6080;48.818;9.526;2022-08-19T08:34:40;68.50;;;63.47;;
12038;SDS011;6080;48.818;9.526;2022-08-19T08:37:06;91.90;;;85.47;;
12038;SDS011;6080;48.818;9.526;2022-08-19T08:39:32;95.43;;;88.77;;
12038;SDS011;6080;48.818;9.526;2022-08-19T08:44:31;59.33;;;54.77;;
12038;SDS011;6080;48.818;9.526;2022-08-19T08:47:12;42.53;;;38.40;;
12038;SDS011;6080;48.818;9.526;2022-08-19T08:49:48;89.87;;;83.30;;
12038;SDS011;6080;48.818;9.526;2022-08-19T08:52:25;59.07;;;54.17;;
12038;SDS011;6080;48.818;9.526;2022-08-19T08:54:53;101.27;;;94.17;;
12038;SDS011;6080;48.818;9.526;2022-08-19T08:57:32;89.27;;;82.93;;
12038;SDS011;6080;48.818;9.526;2022-08-19T09:00:04;51.33;;;46.67;;
12038;SDS011;6080;48.818;9.526;2022-08-19T09:02:33;49.83;;;45.53;;
12038;SDS011;6080;48.818;9.526;2022-08-19T09:05:01;41.20;;;36.73;;
12038;SDS011;6080;48.818;9.526;2022-08-19T09:10:27;60.43;;;55.30;;
12038;SDS011;6080;48.818;9.526;2022-08-19T09:15:58;77.37;;;71.80;;
12038;SDS011;6080;48.818;9.526;2022-08-19T09:18:51;69.23;;;63.93;;
12038;SDS011;6080;48.818;9.526;2022-08-19T09:21:23;45.23;;;41.17;;
12038;SDS011;6080;48.818;9.526;2022-08-19T09:23:50;167.13;;;156.67;;
12038;SDS011;6080;48.818;9.526;2022-08-19T09:26:18;33.10;;;28.90;;
12038;SDS011;6080;48.818;9.526;2022-08-19T09:28:46;67.57;;;61.90;;
12038;SDS011;6080;48.818;9.526;2022-08-19T09:31:14;148.03;;;138.60;;
12038;SDS011;6080;48.818;9.526;2022-08-19T09:33:48;36.37;;;32.60;;
12038;SDS011;6080;48.818;9.526;2022-08-19T09:36:16;87.10;;;81.10;;
12038;SDS011;6080;48.818;9.526;2022-08-19T09:38:44;88.77;;;82.70;;
12038;SDS011;6080;48.818;9.526;2022-08-19T09:41:12;105.50;;;97.83;;
12038;SDS011;6080;48.818;9.526;2022-08-19T09:43:40;64.50;;;59.50;;
12038;SDS011;6080;48.818;9.526;2022-08-19T09:46:08;95.73;;;89.43;;
12038;SDS011;6080;48.818;9.526;2022-08-19T09:48:40;61.10;;;56.27;;
12038;SDS011;6080;48.818;9.526;2022-08-19T09:51:08;63.70;;;58.77;;
12038;SDS011;6080;48.818;9.526;2022-08-19T09:53:37;39.23;;;35.50;;
12038;SDS011;6080;48.818;9.526;2022-08-19T09:56:04;36.87;;;32.90;;
12038;SDS011;6080;48.818;9.526;2022-08-19T09:58:31;38.67;;;35.10;;
12038;SDS011;6080;48.818;9.526;2022-08-19T10:00:58;62.27;;;56.67;;
12038;SDS011;6080;48.818;9.526;2022-08-19T10:03:26;73.33;;;67.87;;
12038;SDS011;6080;48.818;9.526;2022-08-19T10:05:53;37.00;;;33.47;;
12038;SDS011;6080;48.818;9.526;2022-08-19T10:08:21;51.17;;;47.00;;
12038;SDS011;6080;48.818;9.526;2022-08-19T10:10:49;41.10;;;37.60;;
12038;SDS011;6080;48.818;9.526;2022-08-19T10:13:16;32.50;;;25.07;;
12038;SDS011;6080;48.818;9.526;2022-08-19T10:15:47;113.40;;;106.07;;
12038;SDS011;6080;48.818;9.526;2022-08-19T10:18:15;77.10;;;71.53;;
12038;SDS011;6080;48.818;9.526;2022-08-19T10:20:45;57.43;;;53.03;;
12038;SDS011;6080;48.818;9.526;2022-08-19T10:23:12;131.93;;;123.57;;
12038;SDS011;6080;48.818;9.526;2022-08-19T10:25:40;101.20;;;94.68;;
12038;SDS011;6080;48.818;9.526;2022-08-19T10:28:06;187.63;;;176.45;;
12038;SDS011;6080;48.818;9.526;2022-08-19T10:30:33;54.30;;;50.08;;
12038;SDS011;6080;48.818;9.526;2022-08-19T10:33:01;50.90;;;46.70;;
12038;SDS011;6080;48.818;9.526;2022-08-19T10:35:27;34.70;;;31.13;;
12038;SDS011;6080;48.818;9.526;2022-08-19T10:37:55;54.57;;;50.27;;
12038;SDS011;6080;48.818;9.526;2022-08-19T10:40:24;66.00;;;60.60;;
12038;SDS011;6080;48.818;9.526;2022-08-19T10:42:52;58.63;;;54.05;;
12038;SDS011;6080;48.818;9.526;2022-08-19T10:45:19;56.13;;;51.50;;
12038;SDS011;6080;48.818;9.526;2022-08-19T10:47:48;40.40;;;36.67;;
12038;SDS011;6080;48.818;9.526;2022-08-19T10:50:14;174.68;;;164.45;;
12038;SDS011;6080;48.818;9.526;2022-08-19T10:53:02;143.98;;;134.90;;
12038;SDS011;6080;48.818;9.526;2022-08-19T10:55:30;251.90;;;237.13;;
12038;SDS011;6080;48.818;9.526;2022-08-19T10:58:16;309.58;;;292.38;;
12038;SDS011;6080;48.818;9.526;2022-08-19T11:00:54;246.25;;;232.20;;
12038;SDS011;6080;48.818;9.526;2022-08-19T11:03:22;260.02;;;244.48;;
12038;SDS011;6080;48.818;9.526;2022-08-19T11:06:01;253.52;;;239.15;;
12038;SDS011;6080;48.818;9.526;2022-08-19T11:08:29;80.35;;;74.65;;
12038;SDS011;6080;48.818;9.526;2022-08-19T11:10:57;253.82;;;239.55;;
12038;SDS011;6080;48.818;9.526;2022-08-19T11:13:29;58.20;;;53.88;;
12038;SDS011;6080;48.818;9.526;2022-08-19T11:15:59;184.38;;;173.35;;
12038;SDS011;6080;48.818;9.526;2022-08-19T11:18:27;134.88;;;126.32;;
12038;SDS011;6080;48.818;9.526;2022-08-19T11:20:53;97.47;;;90.65;;
12038;SDS011;6080;48.818;9.526;2022-08-19T11:23:19;65.85;;;60.83;;
12038;SDS011;6080;48.818;9.526;2022-08-19T11:25:45;40.67;;;36.55;;
12038;SDS011;6080;48.818;9.526;2022-08-19T11:28:11;65.00;;;59.97;;
12038;SDS011;6080;48.818;9.526;2022-08-19T11:30:38;74.78;;;69.15;;
12038;SDS011;6080;48.818;9.526;2022-08-19T11:33:04;52.47;;;47.65;;
12038;SDS011;6080;48.818;9.526;2022-08-19T11:35:30;60.05;;;54.75;;
12038;SDS011;6080;48.818;9.526;2022-08-19T11:37:58;137.52;;;128.18;;
12038;SDS011;6080;48.818;9.526;2022-08-19T11:40:25;115.25;;;107.38;;
12038;SDS011;6080;48.818;9.526;2022-08-19T11:42:50;111.37;;;104.00;;
12038;SDS011;6080;48.818;9.526;2022-08-19T11:45:20;122.75;;;114.35;;
12038;SDS011;6080;48.818;9.526;2022-08-19T11:47:47;83.65;;;76.93;;
12038;SDS011;6080;48.818;9.526;2022-08-19T11:50:14;163.97;;;153.17;;
12038;SDS011;6080;48.818;9.526;2022-08-19T11:52:40;148.10;;;138.50;;
12038;SDS011;6080;48.818;9.526;2022-08-19T11:55:06;157.07;;;147.23;;
12038;SDS011;6080;48.818;9.526;2022-08-19T11:57:33;173.50;;;162.73;;
12038;SDS011;6080;48.818;9.526;2022-08-19T11:59:59;139.47;;;129.77;;
12038;SDS011;6080;48.818;9.526;2022-08-19T12:02:26;126.47;;;118.00;;
12038;SDS011;6080;48.818;9.526;2022-08-19T12:04:52;54.40;;;49.13;;
12038;SDS011;6080;48.818;9.526;2022-08-19T12:07:19;71.77;;;65.97;;
12038;SDS011;6080;48.818;9.526;2022-08-19T12:09:45;74.03;;;68.10;;
12038;SDS011;6080;48.818;9.526;2022-08-19T12:12:11;130.07;;;121.10;;
12038;SDS011;6080;48.818;9.526;2022-08-19T12:14:37;96.57;;;89.27;;
12038;SDS011;6080;48.818;9.526;2022-08-19T12:17:03;89.50;;;82.53;;
12038;SDS011;6080;48.818;9.526;2022-08-19T12:19:31;83.33;;;76.83;;
12038;SDS011;6080;48.818;9.526;2022-08-19T12:21:59;57.97;;;52.53;;
12038;SDS011;6080;48.818;9.526;2022-08-19T12:24:29;56.30;;;50.47;;
12038;SDS011;6080;48.818;9.526;2022-08-19T12:26:56;72.43;;;66.17;;
12038;SDS011;6080;48.818;9.526;2022-08-19T12:29:23;65.17;;;59.33;;
12038;SDS011;6080;48.818;9.526;2022-08-19T12:31:53;69.63;;;63.73;;
12038;SDS011;6080;48.818;9.526;2022-08-19T12:34:25;79.73;;;73.00;;
12038;SDS011;6080;48.818;9.526;2022-08-19T12:36:56;97.00;;;89.60;;
12038;SDS011;6080;48.818;9.526;2022-08-19T12:39:26;153.77;;;143.17;;
12038;SDS011;6080;48.818;9.526;2022-08-19T12:41:52;129.37;;;119.97;;
12038;SDS011;6080;48.818;9.526;2022-08-19T12:44:18;100.80;;;92.70;;
12038;SDS011;6080;48.818;9.526;2022-08-19T12:46:44;84.17;;;76.97;;
12038;SDS011;6080;48.818;9.526;2022-08-19T12:49:10;63.97;;;57.33;;
12038;SDS011;6080;48.818;9.526;2022-08-19T12:51:36;64.77;;;58.93;;
12038;SDS011;6080;48.818;9.526;2022-08-19T12:54:02;55.60;;;49.97;;
12038;SDS011;6080;48.818;9.526;2022-08-19T12:56:28;52.63;;;47.50;;
12038;SDS011;6080;48.818;9.526;2022-08-19T12:58:54;55.30;;;50.17;;
12038;SDS011;6080;48.818;9.526;2022-08-19T13:01:20;99.93;;;92.38;;
12038;SDS011;6080;48.818;9.526;2022-08-19T13:03:46;78.83;;;72.13;;
12038;SDS011;6080;48.818;9.526;2022-08-19T13:06:12;69.30;;;63.00;;
12038;SDS011;6080;48.818;9.526;2022-08-19T13:08:38;80.43;;;73.83;;
12038;SDS011;6080;48.818;9.526;2022-08-19T13:11:11;78.13;;;71.83;;
12038;SDS011;6080;48.818;9.526;2022-08-19T13:13:41;56.13;;;51.00;;
12038;SDS011;6080;48.818;9.526;2022-08-19T13:16:08;78.80;;;72.40;;
12038;SDS011;6080;48.818;9.526;2022-08-19T13:18:36;99.90;;;92.47;;
12038;SDS011;6080;48.818;9.526;2022-08-19T13:21:03;81.20;;;74.60;;
12038;SDS011;6080;48.818;9.526;2022-08-19T13:23:31;104.53;;;96.13;;
12038;SDS011;6080;48.818;9.526;2022-08-19T13:25:59;86.83;;;80.13;;
12038;SDS011;6080;48.818;9.526;2022-08-19T13:28:27;82.33;;;75.77;;
12038;SDS011;6080;48.818;9.526;2022-08-19T13:31:17;85.93;;;78.27;;
12038;SDS011;6080;48.818;9.526;2022-08-19T13:34:02;86.83;;;79.70;;
12038;SDS011;6080;48.818;9.526;2022-08-19T13:36:29;82.50;;;75.93;;
12038;SDS011;6080;48.818;9.526;2022-08-19T13:38:55;113.40;;;105.53;;
12038;SDS011;6080;48.818;9.526;2022-08-19T13:41:21;70.40;;;64.37;;
12038;SDS011;6080;48.818;9.526;2022-08-19T13:43:47;74.73;;;68.73;;
12038;SDS011;6080;48.818;9.526;2022-08-19T13:46:14;68.57;;;62.53;;
12038;SDS011;6080;48.818;9.526;2022-08-19T13:48:41;51.10;;;46.10;;
12038;SDS011;6080;48.818;9.526;2022-08-19T13:51:07;49.80;;;44.63;;
12038;SDS011;6080;48.818;9.526;2022-08-19T13:53:36;40.17;;;35.97;;
12038;SDS011;6080;48.818;9.526;2022-08-19T13:56:08;64.67;;;59.30;;
12038;SDS011;6080;48.818;9.526;2022-08-19T13:58:36;67.90;;;62.00;;
12038;SDS011;6080;48.818;9.526;2022-08-19T14:01:02;56.67;;;51.40;;
12038;SDS011;6080;48.818;9.526;2022-08-19T14:03:30;38.43;;;34.30;;
12038;SDS011;6080;48.818;9.526;2022-08-19T14:05:57;46.37;;;41.90;;
12038;SDS011;6080;48.818;9.526;2022-08-19T14:08:23;64.47;;;58.70;;
12038;SDS011;6080;48.818;9.526;2022-08-19T14:10:49;52.83;;;47.53;;
12038;SDS011;6080;48.818;9.526;2022-08-19T14:13:16;58.90;;;53.10;;
12038;SDS011;6080;48.818;9.526;2022-08-19T14:15:45;60.07;;;54.43;;
12038;SDS011;6080;48.818;9.526;2022-08-19T14:18:13;61.10;;;55.30;;
12038;SDS011;6080;48.818;9.526;2022-08-19T14:20:41;66.97;;;60.87;;
12038;SDS011;6080;48.818;9.526;2022-08-19T14:23:07;86.60;;;79.73;;
12038;SDS011;6080;48.818;9.526;2022-08-19T14:25:33;74.13;;;67.50;;
12038;SDS011;6080;48.818;9.526;2022-08-19T14:27:59;100.53;;;93.10;;
12038;SDS011;6080;48.818;9.526;2022-08-19T14:30:29;84.20;;;77.47;;
12038;SDS011;6080;48.818;9.526;2022-08-19T14:32:57;114.23;;;106.50;;
12038;SDS011;6080;48.818;9.526;2022-08-19T14:35:25;60.80;;;55.67;;
12038;SDS011;6080;48.818;9.526;2022-08-19T14:37:52;107.90;;;100.70;;
12038;SDS011;6080;48.818;9.526;2022-08-19T14:40:24;78.33;;;72.83;;
12038;SDS011;6080;48.818;9.526;2022-08-19T14:42:52;104.87;;;97.73;;